sensor_id;sensor_type;location;lat;lon;timestamp;P1;P2;P0
83036;PMS1003;73029;43.592;1.458;2023-11-19T00:01:07;36.50;31.75;23.00
83036;PMS1003;73029;43.592;1.458;2023-11-19T00:03:32;31.00;30.67;22.33
83036;PMS1003;73029;43.592;1.458;2023-11-19T00:05:58;33.00;27.33;19.67
83036;PMS1003;73029;43.592;1.458;2023-11-19T00:08:24;28.67;25.00;17.67
83036;PMS1003;73029;43.592;1.458;2023-11-19T00:10:50;33.33;29.00;20.67
83036;PMS1003;73029;43.592;1.458;2023-11-19T00:13:16;28.67;25.33;19.00
83036;PMS1003;73029;43.592;1.458;2023-11-19T00:15:41;26.33;26.33;19.00
83036;PMS1003;73029;43.592;1.458;2023-11-19T00:18:07;28.33;26.33;19.33
83036;PMS1003;73029;43.592;1.458;2023-11-19T00:20:32;24.33;23.00;18.00
83036;PMS1003;73029;43.592;1.458;2023-11-19T00:22:57;22.00;22.00;15.33
83036;PMS1003;73029;43.592;1.458;2023-11-19T00:25:23;24.00;21.33;16.00
83036;PMS1003;73029;43.592;1.458;2023-11-19T00:27:49;23.33;23.33;17.67
83036;PMS1003;73029;43.592;1.458;2023-11-19T00:30:15;26.33;26.33;18.67
83036;PMS1003;73029;43.592;1.458;2023-11-19T00:32:41;28.67;25.00;19.00
83036;PMS1003;73029;43.592;1.458;2023-11-19T00:35:07;28.00;26.00;18.33
83036;PMS1003;73029;43.592;1.458;2023-11-19T00:37:35;22.67;22.67;19.00
83036;PMS1003;73029;43.592;1.458;2023-11-19T00:40:01;23.67;22.67;18.00
83036;PMS1003;73029;43.592;1.458;2023-11-19T00:42:30;15.67;15.33;14.33
83036;PMS1003;73029;43.592;1.458;2023-11-19T00:44:55;27.00;27.00;18.00
83036;PMS1003;73029;43.592;1.458;2023-11-19T00:47:20;25.00;22.67;19.33
83036;PMS1003;73029;43.592;1.458;2023-11-19T00:49:46;24.67;24.67;17.67
83036;PMS1003;73029;43.592;1.458;2023-11-19T00:52:14;28.67;26.67;19.33
83036;PMS1003;73029;43.592;1.458;2023-11-19T00:54:40;24.33;21.67;18.33
83036;PMS1003;73029;43.592;1.458;2023-11-19T00:57:05;25.33;23.33;18.33
83036;PMS1003;73029;43.592;1.458;2023-11-19T00:59:30;24.00;24.00;18.00
83036;PMS1003;73029;43.592;1.458;2023-11-19T01:01:56;24.67;22.00;17.00
83036;PMS1003;73029;43.592;1.458;2023-11-19T01:04:21;16.67;14.00;10.00
83036;PMS1003;73029;43.592;1.458;2023-11-19T01:06:47;26.67;25.33;18.00
83036;PMS1003;73029;43.592;1.458;2023-11-19T01:09:12;27.00;23.67;19.00
83036;PMS1003;73029;43.592;1.458;2023-11-19T01:11:38;23.33;21.33;17.00
83036;PMS1003;73029;43.592;1.458;2023-11-19T01:14:04;25.00;23.33;18.00
83036;PMS1003;73029;43.592;1.458;2023-11-19T01:16:29;19.00;18.00;16.00
83036;PMS1003;73029;43.592;1.458;2023-11-19T01:18:55;22.00;22.00;17.00
83036;PMS1003;73029;43.592;1.458;2023-11-19T01:21:21;17.00;17.00;14.33
83036;PMS1003;73029;43.592;1.458;2023-11-19T01:23:47;20.00;19.00;17.00
83036;PMS1003;73029;43.592;1.458;2023-11-19T01:26:12;24.67;22.67;15.67
83036;PMS1003;73029;43.592;1.458;2023-11-19T01:28:38;21.00;20.00;13.33
83036;PMS1003;73029;43.592;1.458;2023-11-19T01:31:09;23.00;20.00;16.33
83036;PMS1003;73029;43.592;1.458;2023-11-19T01:33:39;22.33;20.33;16.33
83036;PMS1003;73029;43.592;1.458;2023-11-19T01:36:06;23.67;22.67;17.00
83036;PMS1003;73029;43.592;1.458;2023-11-19T01:38:33;21.67;21.67;16.67
83036;PMS1003;73029;43.592;1.458;2023-11-19T01:40:59;22.67;20.00;15.00
83036;PMS1003;73029;43.592;1.458;2023-11-19T01:43:34;19.67;19.67;15.33
83036;PMS1003;73029;43.592;1.458;2023-11-19T01:46:01;21.33;20.67;15.33
83036;PMS1003;73029;43.592;1.458;2023-11-19T01:48:28;16.67;16.67;12.33
83036;PMS1003;73029;43.592;1.458;2023-11-19T01:50:55;19.33;19.33;15.00
83036;PMS1003;73029;43.592;1.458;2023-11-19T01:53:21;18.67;17.00;14.33
83036;PMS1003;73029;43.592;1.458;2023-11-19T01:55:47;16.67;16.33;12.00
83036;PMS1003;73029;43.592;1.458;2023-11-19T01:58:13;7.00;7.00;4.00
83036;PMS1003;73029;43.592;1.458;2023-11-19T02:00:38;18.67;17.00;13.00
83036;PMS1003;73029;43.592;1.458;2023-11-19T02:03:05;17.67;14.67;12.33
83036;PMS1003;73029;43.592;1.458;2023-11-19T02:05:34;20.33;18.67;14.00
83036;PMS1003;73029;43.592;1.458;2023-11-19T02:08:00;18.00;16.00;11.00
83036;PMS1003;73029;43.592;1.458;2023-11-19T02:10:26;16.67;15.00;11.33
83036;PMS1003;73029;43.592;1.458;2023-11-19T02:12:52;16.67;16.33;13.00
83036;PMS1003;73029;43.592;1.458;2023-11-19T02:15:17;18.67;18.00;13.00
83036;PMS1003;73029;43.592;1.458;2023-11-19T02:17:46;16.67;16.33;11.67
83036;PMS1003;73029;43.592;1.458;2023-11-19T02:20:12;18.00;17.33;13.00
83036;PMS1003;73029;43.592;1.458;2023-11-19T02:22:39;19.67;19.33;14.33
83036;PMS1003;73029;43.592;1.458;2023-11-19T02:25:07;15.33;13.67;10.67
83036;PMS1003;73029;43.592;1.458;2023-11-19T02:27:48;18.33;14.00;12.00
83036;PMS1003;73029;43.592;1.458;2023-11-19T02:30:20;18.00;17.00;13.00
83036;PMS1003;73029;43.592;1.458;2023-11-19T02:32:46;17.67;17.00;14.00
83036;PMS1003;73029;43.592;1.458;2023-11-19T02:35:13;19.67;16.67;12.00
83036;PMS1003;73029;43.592;1.458;2023-11-19T02:37:38;14.00;13.67;11.67
83036;PMS1003;73029;43.592;1.458;2023-11-19T02:40:04;17.00;16.00;13.00
83036;PMS1003;73029;43.592;1.458;2023-11-19T02:42:30;17.00;16.33;12.67
83036;PMS1003;73029;43.592;1.458;2023-11-19T02:44:56;16.00;16.00;13.00
83036;PMS1003;73029;43.592;1.458;2023-11-19T02:47:22;18.00;15.67;11.00
83036;PMS1003;73029;43.592;1.458;2023-11-19T02:49:49;1.00;0.00;0.00
83036;PMS1003;73029;43.592;1.458;2023-11-19T02:52:14;17.67;16.00;11.67
83036;PMS1003;73029;43.592;1.458;2023-11-19T02:54:40;18.33;15.00;11.00
83036;PMS1003;73029;43.592;1.458;2023-11-19T02:57:06;16.00;15.00;10.33
83036;PMS1003;73029;43.592;1.458;2023-11-19T02:59:35;13.67;13.67;11.00
83036;PMS1003;73029;43.592;1.458;2023-11-19T03:02:04;14.67;12.67;10.33
83036;PMS1003;73029;43.592;1.458;2023-11-19T03:04:32;17.33;16.00;14.00
83036;PMS1003;73029;43.592;1.458;2023-11-19T03:06:58;14.00;14.00;10.67
83036;PMS1003;73029;43.592;1.458;2023-11-19T03:09:23;15.33;15.00;10.33
83036;PMS1003;73029;43.592;1.458;2023-11-19T03:11:49;14.67;14.67;11.00
83036;PMS1003;73029;43.592;1.458;2023-11-19T03:14:15;15.67;13.33;9.67
83036;PMS1003;73029;43.592;1.458;2023-11-19T03:16:40;17.33;16.00;11.00
83036;PMS1003;73029;43.592;1.458;2023-11-19T03:19:05;14.00;13.33;11.00
83036;PMS1003;73029;43.592;1.458;2023-11-19T03:21:31;15.67;13.67;11.67
83036;PMS1003;73029;43.592;1.458;2023-11-19T03:23:57;15.00;15.00;12.67
83036;PMS1003;73029;43.592;1.458;2023-11-19T03:26:25;16.67;15.00;10.67
83036;PMS1003;73029;43.592;1.458;2023-11-19T03:28:52;13.67;12.00;9.67
83036;PMS1003;73029;43.592;1.458;2023-11-19T03:31:18;14.00;13.33;10.33
83036;PMS1003;73029;43.592;1.458;2023-11-19T03:33:43;13.67;13.67;10.00
83036;PMS1003;73029;43.592;1.458;2023-11-19T03:36:10;20.67;15.67;10.00
83036;PMS1003;73029;43.592;1.458;2023-11-19T03:38:35;17.00;15.00;12.33
83036;PMS1003;73029;43.592;1.458;2023-11-19T03:41:01;12.33;9.67;9.67
83036;PMS1003;73029;43.592;1.458;2023-11-19T03:43:35;15.67;15.67;10.33
83036;PMS1003;73029;43.592;1.458;2023-11-19T03:46:00;15.33;15.33;10.00
83036;PMS1003;73029;43.592;1.458;2023-11-19T03:48:25;16.00;16.00;11.67
83036;PMS1003;73029;43.592;1.458;2023-11-19T03:50:51;14.67;14.00;11.33
83036;PMS1003;73029;43.592;1.458;2023-11-19T03:53:16;13.67;13.67;11.00
83036;PMS1003;73029;43.592;1.458;2023-11-19T03:55:42;19.67;16.00;9.67
83036;PMS1003;73029;43.592;1.458;2023-11-19T03:58:07;12.33;12.00;8.33
83036;PMS1003;73029;43.592;1.458;2023-11-19T04:00:32;13.00;13.00;10.00
83036;PMS1003;73029;43.592;1.458;2023-11-19T04:02:58;14.00;13.67;11.33
83036;PMS1003;73029;43.592;1.458;2023-11-19T04:05:23;12.67;11.67;9.67
83036;PMS1003;73029;43.592;1.458;2023-11-19T04:07:48;13.33;12.67;9.33
83036;PMS1003;73029;43.592;1.458;2023-11-19T04:10:14;13.67;12.33;8.00
83036;PMS1003;73029;43.592;1.458;2023-11-19T04:12:41;12.33;12.00;10.00
83036;PMS1003;73029;43.592;1.458;2023-11-19T04:15:07;8.33;8.33;5.67
83036;PMS1003;73029;43.592;1.458;2023-11-19T04:17:33;15.33;14.00;10.00
83036;PMS1003;73029;43.592;1.458;2023-11-19T04:19:59;16.67;15.33;12.00
83036;PMS1003;73029;43.592;1.458;2023-11-19T04:22:25;18.67;17.00;12.00
83036;PMS1003;73029;43.592;1.458;2023-11-19T04:24:51;14.67;12.67;11.33
83036;PMS1003;73029;43.592;1.458;2023-11-19T04:27:16;21.33;19.67;15.00
83036;PMS1003;73029;43.592;1.458;2023-11-19T04:29:42;22.67;20.67;16.00
83036;PMS1003;73029;43.592;1.458;2023-11-19T04:32:07;19.67;19.67;14.33
83036;PMS1003;73029;43.592;1.458;2023-11-19T04:34:33;26.33;23.67;15.33
83036;PMS1003;73029;43.592;1.458;2023-11-19T04:36:58;24.33;20.67;15.00
83036;PMS1003;73029;43.592;1.458;2023-11-19T04:39:27;22.67;20.33;17.67
83036;PMS1003;73029;43.592;1.458;2023-11-19T04:41:52;21.00;20.00;16.33
83036;PMS1003;73029;43.592;1.458;2023-11-19T04:44:18;21.33;21.33;16.67
83036;PMS1003;73029;43.592;1.458;2023-11-19T04:46:43;24.00;22.33;16.00
83036;PMS1003;73029;43.592;1.458;2023-11-19T04:49:09;23.33;23.00;17.00
83036;PMS1003;73029;43.592;1.458;2023-11-19T04:51:41;23.00;22.00;17.00
83036;PMS1003;73029;43.592;1.458;2023-11-19T04:54:08;22.67;21.67;17.33
83036;PMS1003;73029;43.592;1.458;2023-11-19T04:56:35;24.67;23.00;16.33
83036;PMS1003;73029;43.592;1.458;2023-11-19T04:59:03;25.67;24.33;19.33
83036;PMS1003;73029;43.592;1.458;2023-11-19T05:01:31;23.67;23.00;17.67
83036;PMS1003;73029;43.592;1.458;2023-11-19T05:04:00;27.00;25.67;18.67
83036;PMS1003;73029;43.592;1.458;2023-11-19T05:06:29;25.00;23.00;19.67
83036;PMS1003;73029;43.592;1.458;2023-11-19T05:08:56;28.67;26.33;19.67
83036;PMS1003;73029;43.592;1.458;2023-11-19T05:11:22;24.00;21.00;18.00
83036;PMS1003;73029;43.592;1.458;2023-11-19T05:13:47;26.00;25.67;18.67
83036;PMS1003;73029;43.592;1.458;2023-11-19T05:16:13;26.00;24.67;18.33
83036;PMS1003;73029;43.592;1.458;2023-11-19T05:18:39;25.00;22.67;17.33
83036;PMS1003;73029;43.592;1.458;2023-11-19T05:21:05;25.67;23.00;17.67
83036;PMS1003;73029;43.592;1.458;2023-11-19T05:23:31;22.67;21.33;15.33
83036;PMS1003;73029;43.592;1.458;2023-11-19T05:25:58;22.33;22.33;18.67
83036;PMS1003;73029;43.592;1.458;2023-11-19T05:28:24;25.33;23.00;17.67
83036;PMS1003;73029;43.592;1.458;2023-11-19T05:30:51;25.67;24.00;18.00
83036;PMS1003;73029;43.592;1.458;2023-11-19T05:33:16;26.67;25.00;17.00
83036;PMS1003;73029;43.592;1.458;2023-11-19T05:35:41;24.00;21.33;15.67
83036;PMS1003;73029;43.592;1.458;2023-11-19T05:38:07;23.33;22.67;16.67
83036;PMS1003;73029;43.592;1.458;2023-11-19T05:40:32;23.67;22.33;16.00
83036;PMS1003;73029;43.592;1.458;2023-11-19T05:42:58;20.00;19.67;16.33
83036;PMS1003;73029;43.592;1.458;2023-11-19T05:45:23;19.33;16.33;11.00
83036;PMS1003;73029;43.592;1.458;2023-11-19T05:47:48;22.00;22.00;16.00
83036;PMS1003;73029;43.592;1.458;2023-11-19T05:50:14;26.33;24.00;18.00
83036;PMS1003;73029;43.592;1.458;2023-11-19T05:52:39;24.00;21.00;14.00
83036;PMS1003;73029;43.592;1.458;2023-11-19T05:55:05;22.00;21.00;16.67
83036;PMS1003;73029;43.592;1.458;2023-11-19T05:57:34;22.33;18.67;13.00
83036;PMS1003;73029;43.592;1.458;2023-11-19T06:00:00;24.00;22.00;15.00
83036;PMS1003;73029;43.592;1.458;2023-11-19T06:02:26;23.33;21.00;15.33
83036;PMS1003;73029;43.592;1.458;2023-11-19T06:04:52;24.00;21.67;14.00
83036;PMS1003;73029;43.592;1.458;2023-11-19T06:07:18;21.33;20.67;17.00
83036;PMS1003;73029;43.592;1.458;2023-11-19T06:09:44;21.67;21.00;14.33
83036;PMS1003;73029;43.592;1.458;2023-11-19T06:12:10;21.00;20.00;14.00
83036;PMS1003;73029;43.592;1.458;2023-11-19T06:14:35;20.67;17.67;12.33
83036;PMS1003;73029;43.592;1.458;2023-11-19T06:17:01;21.33;18.33;13.67
83036;PMS1003;73029;43.592;1.458;2023-11-19T06:19:26;20.00;19.33;13.67
83036;PMS1003;73029;43.592;1.458;2023-11-19T06:21:52;17.67;17.67;12.33
83036;PMS1003;73029;43.592;1.458;2023-11-19T06:24:17;17.33;15.67;13.67
83036;PMS1003;73029;43.592;1.458;2023-11-19T06:26:42;22.67;22.00;16.33
83036;PMS1003;73029;43.592;1.458;2023-11-19T06:29:08;18.67;18.33;13.33
83036;PMS1003;73029;43.592;1.458;2023-11-19T06:31:33;20.33;20.33;15.33
83036;PMS1003;73029;43.592;1.458;2023-11-19T06:33:59;27.67;24.67;19.00
83036;PMS1003;73029;43.592;1.458;2023-11-19T06:36:24;24.33;23.00;17.33
83036;PMS1003;73029;43.592;1.458;2023-11-19T06:38:49;23.67;20.67;15.00
83036;PMS1003;73029;43.592;1.458;2023-11-19T06:41:15;23.00;20.00;16.00
83036;PMS1003;73029;43.592;1.458;2023-11-19T06:43:40;23.33;20.33;15.67
83036;PMS1003;73029;43.592;1.458;2023-11-19T06:46:06;23.00;21.00;15.00
83036;PMS1003;73029;43.592;1.458;2023-11-19T06:48:39;24.67;23.33;17.33
83036;PMS1003;73029;43.592;1.458;2023-11-19T06:51:05;21.33;20.33;13.67
83036;PMS1003;73029;43.592;1.458;2023-11-19T06:53:30;24.33;23.00;16.00
83036;PMS1003;73029;43.592;1.458;2023-11-19T06:55:56;23.33;19.00;14.33
83036;PMS1003;73029;43.592;1.458;2023-11-19T06:58:21;20.33;19.67;14.33
83036;PMS1003;73029;43.592;1.458;2023-11-19T07:00:47;24.33;21.00;17.33
83036;PMS1003;73029;43.592;1.458;2023-11-19T07:03:14;22.67;20.67;14.67
83036;PMS1003;73029;43.592;1.458;2023-11-19T07:05:40;22.33;21.67;15.67
83036;PMS1003;73029;43.592;1.458;2023-11-19T07:08:06;21.33;21.33;16.00
83036;PMS1003;73029;43.592;1.458;2023-11-19T07:10:32;19.33;19.33;13.00
83036;PMS1003;73029;43.592;1.458;2023-11-19T07:12:58;19.50;19.00;16.00
83036;PMS1003;73029;43.592;1.458;2023-11-19T07:15:24;23.00;20.33;16.00
83036;PMS1003;73029;43.592;1.458;2023-11-19T07:17:49;20.67;19.00;14.67
83036;PMS1003;73029;43.592;1.458;2023-11-19T07:20:15;21.33;16.67;13.00
83036;PMS1003;73029;43.592;1.458;2023-11-19T07:22:43;26.00;25.00;17.33
83036;PMS1003;73029;43.592;1.458;2023-11-19T07:25:11;14.67;13.33;12.00
83036;PMS1003;73029;43.592;1.458;2023-11-19T07:27:39;23.00;19.00;14.00
83036;PMS1003;73029;43.592;1.458;2023-11-19T07:30:05;22.67;20.67;16.33
83036;PMS1003;73029;43.592;1.458;2023-11-19T07:32:32;22.67;21.67;15.00
83036;PMS1003;73029;43.592;1.458;2023-11-19T07:34:58;22.33;21.67;15.00
83036;PMS1003;73029;43.592;1.458;2023-11-19T07:37:23;19.33;19.00;14.00
83036;PMS1003;73029;43.592;1.458;2023-11-19T07:39:49;24.33;19.67;15.33
83036;PMS1003;73029;43.592;1.458;2023-11-19T07:42:14;16.67;15.00;12.67
83036;PMS1003;73029;43.592;1.458;2023-11-19T07:44:40;22.00;20.33;16.00
83036;PMS1003;73029;43.592;1.458;2023-11-19T07:47:06;25.00;18.33;14.00
83036;PMS1003;73029;43.592;1.458;2023-11-19T07:49:31;22.00;19.33;14.33
83036;PMS1003;73029;43.592;1.458;2023-11-19T07:51:57;20.67;20.67;15.67
83036;PMS1003;73029;43.592;1.458;2023-11-19T07:54:23;17.00;17.00;14.33
83036;PMS1003;73029;43.592;1.458;2023-11-19T07:56:49;18.00;18.00;15.00
83036;PMS1003;73029;43.592;1.458;2023-11-19T07:59:15;21.33;21.33;16.00
83036;PMS1003;73029;43.592;1.458;2023-11-19T08:01:40;15.00;12.00;9.67
83036;PMS1003;73029;43.592;1.458;2023-11-19T08:04:06;16.00;16.00;13.67
83036;PMS1003;73029;43.592;1.458;2023-11-19T08:06:31;18.67;17.33;14.00
83036;PMS1003;73029;43.592;1.458;2023-11-19T08:08:57;25.33;23.00;16.00
83036;PMS1003;73029;43.592;1.458;2023-11-19T08:11:22;16.67;15.00;10.33
83036;PMS1003;73029;43.592;1.458;2023-11-19T08:13:48;20.67;19.00;13.67
83036;PMS1003;73029;43.592;1.458;2023-11-19T08:16:13;21.00;18.67;14.00
83036;PMS1003;73029;43.592;1.458;2023-11-19T08:18:41;17.67;17.67;15.33
83036;PMS1003;73029;43.592;1.458;2023-11-19T08:21:09;20.00;17.67;13.00
83036;PMS1003;73029;43.592;1.458;2023-11-19T08:23:35;22.00;20.33;15.67
83036;PMS1003;73029;43.592;1.458;2023-11-19T08:26:01;17.67;17.67;13.67
83036;PMS1003;73029;43.592;1.458;2023-11-19T08:28:26;18.33;16.33;13.00
83036;PMS1003;73029;43.592;1.458;2023-11-19T08:30:52;17.33;16.33;13.67
83036;PMS1003;73029;43.592;1.458;2023-11-19T08:33:18;21.33;18.00;13.33
83036;PMS1003;73029;43.592;1.458;2023-11-19T08:35:43;20.33;19.67;14.00
83036;PMS1003;73029;43.592;1.458;2023-11-19T08:38:08;23.33;20.33;15.67
83036;PMS1003;73029;43.592;1.458;2023-11-19T08:40:34;19.67;18.67;14.00
83036;PMS1003;73029;43.592;1.458;2023-11-19T08:42:59;19.67;18.67;14.00
83036;PMS1003;73029;43.592;1.458;2023-11-19T08:45:25;20.00;15.67;12.33
83036;PMS1003;73029;43.592;1.458;2023-11-19T08:47:50;19.00;18.00;14.67
83036;PMS1003;73029;43.592;1.458;2023-11-19T08:50:15;20.67;19.33;14.67
83036;PMS1003;73029;43.592;1.458;2023-11-19T08:52:41;19.00;15.67;13.00
83036;PMS1003;73029;43.592;1.458;2023-11-19T08:55:07;22.33;19.33;14.00
83036;PMS1003;73029;43.592;1.458;2023-11-19T08:57:32;21.67;19.33;13.00
83036;PMS1003;73029;43.592;1.458;2023-11-19T08:59:58;25.67;21.67;14.67
83036;PMS1003;73029;43.592;1.458;2023-11-19T09:02:23;21.67;18.33;13.67
83036;PMS1003;73029;43.592;1.458;2023-11-19T09:04:49;16.00;16.00;13.00
83036;PMS1003;73029;43.592;1.458;2023-11-19T09:07:14;17.00;17.00;13.00
83036;PMS1003;73029;43.592;1.458;2023-11-19T09:09:39;18.00;16.00;11.33
83036;PMS1003;73029;43.592;1.458;2023-11-19T09:12:06;18.00;18.00;13.00
83036;PMS1003;73029;43.592;1.458;2023-11-19T09:14:32;15.33;15.33;13.00
83036;PMS1003;73029;43.592;1.458;2023-11-19T09:16:58;20.67;17.67;13.00
83036;PMS1003;73029;43.592;1.458;2023-11-19T09:19:23;19.33;18.00;15.00
83036;PMS1003;73029;43.592;1.458;2023-11-19T09:21:49;23.33;19.00;12.67
83036;PMS1003;73029;43.592;1.458;2023-11-19T09:24:15;19.00;17.00;12.00
83036;PMS1003;73029;43.592;1.458;2023-11-19T09:26:41;11.33;11.33;9.33
83036;PMS1003;73029;43.592;1.458;2023-11-19T09:29:09;18.00;17.00;12.33
83036;PMS1003;73029;43.592;1.458;2023-11-19T09:31:35;14.67;12.33;10.00
83036;PMS1003;73029;43.592;1.458;2023-11-19T09:34:03;16.33;16.33;11.33
83036;PMS1003;73029;43.592;1.458;2023-11-19T09:36:28;14.33;14.33;12.67
83036;PMS1003;73029;43.592;1.458;2023-11-19T09:38:54;15.67;14.33;9.33
83036;PMS1003;73029;43.592;1.458;2023-11-19T09:41:19;9.00;7.33;7.00
83036;PMS1003;73029;43.592;1.458;2023-11-19T09:43:45;10.00;10.00;8.00
83036;PMS1003;73029;43.592;1.458;2023-11-19T09:46:12;10.00;10.00;8.00
83036;PMS1003;73029;43.592;1.458;2023-11-19T09:48:38;10.00;10.00;6.33
83036;PMS1003;73029;43.592;1.458;2023-11-19T09:51:08;8.00;8.00;6.67
83036;PMS1003;73029;43.592;1.458;2023-11-19T09:53:35;8.00;8.00;7.00
83036;PMS1003;73029;43.592;1.458;2023-11-19T09:56:01;10.67;10.00;7.00
83036;PMS1003;73029;43.592;1.458;2023-11-19T09:58:28;10.67;10.67;9.00
83036;PMS1003;73029;43.592;1.458;2023-11-19T10:00:55;9.00;9.00;7.67
83036;PMS1003;73029;43.592;1.458;2023-11-19T10:03:20;6.67;6.00;4.33
83036;PMS1003;73029;43.592;1.458;2023-11-19T10:05:48;10.67;8.00;6.33
83036;PMS1003;73029;43.592;1.458;2023-11-19T10:08:13;8.33;8.33;7.00
83036;PMS1003;73029;43.592;1.458;2023-11-19T10:10:39;8.00;8.00;7.00
83036;PMS1003;73029;43.592;1.458;2023-11-19T10:13:04;9.67;9.00;7.33
83036;PMS1003;73029;43.592;1.458;2023-11-19T10:15:33;8.33;6.67;4.00
83036;PMS1003;73029;43.592;1.458;2023-11-19T10:18:01;9.00;9.00;7.67
83036;PMS1003;73029;43.592;1.458;2023-11-19T10:20:29;10.00;9.00;7.00
83036;PMS1003;73029;43.592;1.458;2023-11-19T10:23:00;10.00;9.00;8.00
83036;PMS1003;73029;43.592;1.458;2023-11-19T10:25:26;9.33;9.33;8.67
83036;PMS1003;73029;43.592;1.458;2023-11-19T10:27:53;10.00;10.00;9.00
83036;PMS1003;73029;43.592;1.458;2023-11-19T10:30:22;10.00;10.00;8.33
83036;PMS1003;73029;43.592;1.458;2023-11-19T10:33:04;14.00;12.00;9.67
83036;PMS1003;73029;43.592;1.458;2023-11-19T10:35:54;12.33;11.67;9.00
83036;PMS1003;73029;43.592;1.458;2023-11-19T10:38:24;15.00;14.00;11.00
83036;PMS1003;73029;43.592;1.458;2023-11-19T10:40:50;15.00;14.33;11.67
83036;PMS1003;73029;43.592;1.458;2023-11-19T10:43:17;11.67;11.67;9.67
83036;PMS1003;73029;43.592;1.458;2023-11-19T10:45:43;13.00;12.00;11.00
83036;PMS1003;73029;43.592;1.458;2023-11-19T10:48:09;14.00;12.33;9.67
83036;PMS1003;73029;43.592;1.458;2023-11-19T10:50:38;10.00;10.00;8.00
83036;PMS1003;73029;43.592;1.458;2023-11-19T10:53:08;14.67;14.67;11.00
83036;PMS1003;73029;43.592;1.458;2023-11-19T10:55:36;11.67;11.00;9.00
83036;PMS1003;73029;43.592;1.458;2023-11-19T10:58:06;13.00;8.67;6.33
83036;PMS1003;73029;43.592;1.458;2023-11-19T11:03:17;9.33;8.67;7.00
83036;PMS1003;73029;43.592;1.458;2023-11-19T11:05:49;11.33;10.33;8.33
83036;PMS1003;73029;43.592;1.458;2023-11-19T11:08:16;10.00;9.00;6.67
83036;PMS1003;73029;43.592;1.458;2023-11-19T11:11:03;8.00;8.00;6.00
83036;PMS1003;73029;43.592;1.458;2023-11-19T11:13:29;7.00;6.33;5.67
83036;PMS1003;73029;43.592;1.458;2023-11-19T11:15:56;9.33;9.33;7.33
83036;PMS1003;73029;43.592;1.458;2023-11-19T11:18:25;10.33;9.00;7.67
83036;PMS1003;73029;43.592;1.458;2023-11-19T11:21:05;10.33;9.00;7.00
83036;PMS1003;73029;43.592;1.458;2023-11-19T11:36:46;7.67;7.67;6.33
83036;PMS1003;73029;43.592;1.458;2023-11-19T11:39:23;7.00;7.00;5.00
83036;PMS1003;73029;43.592;1.458;2023-11-19T11:45:03;7.33;5.67;4.67
83036;PMS1003;73029;43.592;1.458;2023-11-19T11:50:10;6.67;6.33;5.67
83036;PMS1003;73029;43.592;1.458;2023-11-19T11:55:26;8.00;8.00;5.33
83036;PMS1003;73029;43.592;1.458;2023-11-19T11:58:05;7.00;7.00;6.00
83036;PMS1003;73029;43.592;1.458;2023-11-19T12:00:31;7.00;7.00;6.00
83036;PMS1003;73029;43.592;1.458;2023-11-19T12:03:01;7.00;5.33;4.00
83036;PMS1003;73029;43.592;1.458;2023-11-19T12:05:28;6.00;5.67;4.67
83036;PMS1003;73029;43.592;1.458;2023-11-19T12:07:54;7.00;6.33;5.00
83036;PMS1003;73029;43.592;1.458;2023-11-19T12:10:20;7.00;7.00;5.67
83036;PMS1003;73029;43.592;1.458;2023-11-19T12:12:47;10.00;8.00;4.33
83036;PMS1003;73029;43.592;1.458;2023-11-19T12:15:18;8.33;7.33;6.00
83036;PMS1003;73029;43.592;1.458;2023-11-19T12:17:51;8.00;6.00;6.00
83036;PMS1003;73029;43.592;1.458;2023-11-19T12:20:17;7.33;7.33;5.67
83036;PMS1003;73029;43.592;1.458;2023-11-19T12:22:44;6.00;6.00;6.00
83036;PMS1003;73029;43.592;1.458;2023-11-19T12:25:11;8.67;8.67;7.00
83036;PMS1003;73029;43.592;1.458;2023-11-19T12:27:44;8.33;7.00;6.00
83036;PMS1003;73029;43.592;1.458;2023-11-19T12:30:10;7.00;7.00;5.00
83036;PMS1003;73029;43.592;1.458;2023-11-19T12:32:45;7.33;7.00;6.00
83036;PMS1003;73029;43.592;1.458;2023-11-19T12:35:11;6.67;6.67;6.00
83036;PMS1003;73029;43.592;1.458;2023-11-19T12:37:44;7.33;7.00;6.00
83036;PMS1003;73029;43.592;1.458;2023-11-19T12:42:39;6.67;5.33;4.33
83036;PMS1003;73029;43.592;1.458;2023-11-19T12:45:06;4.67;4.00;3.00
83036;PMS1003;73029;43.592;1.458;2023-11-19T12:47:31;4.67;4.67;4.00
83036;PMS1003;73029;43.592;1.458;2023-11-19T12:49:57;6.33;5.33;4.00
83036;PMS1003;73029;43.592;1.458;2023-11-19T12:52:23;5.00;5.00;5.00
83036;PMS1003;73029;43.592;1.458;2023-11-19T12:54:48;6.00;6.00;4.67
83036;PMS1003;73029;43.592;1.458;2023-11-19T12:57:14;4.67;4.67;4.00
83036;PMS1003;73029;43.592;1.458;2023-11-19T12:59:40;6.67;6.67;4.67
83036;PMS1003;73029;43.592;1.458;2023-11-19T13:02:06;7.33;6.00;5.00
83036;PMS1003;73029;43.592;1.458;2023-11-19T13:04:32;6.00;6.00;4.00
83036;PMS1003;73029;43.592;1.458;2023-11-19T13:06:57;6.33;6.33;5.33
83036;PMS1003;73029;43.592;1.458;2023-11-19T13:09:26;8.00;7.00;6.00
83036;PMS1003;73029;43.592;1.458;2023-11-19T13:11:53;9.00;7.00;5.67
83036;PMS1003;73029;43.592;1.458;2023-11-19T13:14:19;6.00;6.00;4.67
83036;PMS1003;73029;43.592;1.458;2023-11-19T13:16:45;9.00;7.00;6.00
83036;PMS1003;73029;43.592;1.458;2023-11-19T13:19:12;7.33;6.67;5.33
83036;PMS1003;73029;43.592;1.458;2023-11-19T13:21:38;9.00;7.67;6.67
83036;PMS1003;73029;43.592;1.458;2023-11-19T13:24:05;6.67;6.67;5.67
83036;PMS1003;73029;43.592;1.458;2023-11-19T13:26:31;6.67;6.00;5.00
83036;PMS1003;73029;43.592;1.458;2023-11-19T13:28:56;5.33;5.33;4.00
83036;PMS1003;73029;43.592;1.458;2023-11-19T13:31:22;7.33;7.33;6.00
83036;PMS1003;73029;43.592;1.458;2023-11-19T13:33:47;7.00;7.00;6.00
83036;PMS1003;73029;43.592;1.458;2023-11-19T13:36:13;6.33;6.33;4.67
83036;PMS1003;73029;43.592;1.458;2023-11-19T13:38:38;4.33;4.33;3.33
83036;PMS1003;73029;43.592;1.458;2023-11-19T13:41:06;8.00;7.33;5.00
83036;PMS1003;73029;43.592;1.458;2023-11-19T13:43:31;10.33;8.33;6.33
83036;PMS1003;73029;43.592;1.458;2023-11-19T13:45:57;8.00;6.67;5.67
83036;PMS1003;73029;43.592;1.458;2023-11-19T13:48:23;9.33;7.00;5.00
83036;PMS1003;73029;43.592;1.458;2023-11-19T13:50:49;7.00;5.00;4.00
83036;PMS1003;73029;43.592;1.458;2023-11-19T13:53:15;6.00;6.00;5.00
83036;PMS1003;73029;43.592;1.458;2023-11-19T13:55:41;6.33;6.33;5.00
83036;PMS1003;73029;43.592;1.458;2023-11-19T13:58:07;7.67;7.67;6.00
83036;PMS1003;73029;43.592;1.458;2023-11-19T14:00:32;6.33;6.33;5.00
83036;PMS1003;73029;43.592;1.458;2023-11-19T14:02:58;6.00;6.00;5.00
83036;PMS1003;73029;43.592;1.458;2023-11-19T14:05:23;6.00;4.33;4.00
83036;PMS1003;73029;43.592;1.458;2023-11-19T14:07:48;6.33;6.33;5.00
83036;PMS1003;73029;43.592;1.458;2023-11-19T14:10:15;6.00;5.00;5.00
83036;PMS1003;73029;43.592;1.458;2023-11-19T14:12:41;8.00;8.00;5.00
83036;PMS1003;73029;43.592;1.458;2023-11-19T14:15:07;5.33;5.33;4.33
83036;PMS1003;73029;43.592;1.458;2023-11-19T14:17:34;8.00;8.00;6.00
83036;PMS1003;73029;43.592;1.458;2023-11-19T14:20:00;7.67;7.33;5.67